createdAt,value
2018-12-24T00:00:03.654Z,6.00
2018-12-24T00:02:49.558Z,7.10
2018-12-24T00:05:28.035Z,4.42
2018-12-24T00:08:09.734Z,5.83
2018-12-24T00:10:57.474Z,5.13
2018-12-24T00:13:38.639Z,11.33
2018-12-24T00:16:19.589Z,6.67
2018-12-24T00:19:23.177Z,7.57
2018-12-24T00:22:05.336Z,6.00
2018-12-24T00:24:50.376Z,7.73
2018-12-24T00:27:40.344Z,5.83
2018-12-24T00:30:17.340Z,5.70
2018-12-24T00:32:57.710Z,8.03
2018-12-24T00:35:42.037Z,8.77
2018-12-24T00:38:33.118Z,6.53
2018-12-24T00:41:17.437Z,3.77
2018-12-24T00:43:58.607Z,8.63
2018-12-24T00:46:42.766Z,5.90
2018-12-24T00:49:21.075Z,4.63
2018-12-24T00:52:00.858Z,2.53
2018-12-24T00:54:39.964Z,5.47
2018-12-24T00:57:28.766Z,7.47
2018-12-24T01:00:11.528Z,6.47
2018-12-24T01:02:55.090Z,5.17
2018-12-24T01:05:55.763Z,4.50
2018-12-24T01:08:39.408Z,7.00
2018-12-24T01:11:25.416Z,6.30
2018-12-24T01:14:07.827Z,6.33
2018-12-24T01:16:50.729Z,8.17
2018-12-24T01:19:38.336Z,4.80
2018-12-24T01:22:26.845Z,10.00
2018-12-24T01:25:11.248Z,9.80
2018-12-24T01:27:58.255Z,4.63
2018-12-24T01:30:38.235Z,8.93
2018-12-24T01:33:23.055Z,8.97
2018-12-24T01:36:04.953Z,7.17
2018-12-24T01:38:49.391Z,7.23
2018-12-24T01:41:36.037Z,12.07
2018-12-24T01:44:21.431Z,8.50
2018-12-24T01:47:06.357Z,8.37
2018-12-24T01:49:51.814Z,10.73
2018-12-24T01:52:34.215Z,12.82
2018-12-24T01:55:18.073Z,11.13
2018-12-24T01:57:57.422Z,10.83
2018-12-24T02:00:38.824Z,13.00
2018-12-24T02:03:19.909Z,13.13
2018-12-24T02:06:00.114Z,10.73
2018-12-24T02:08:43.404Z,11.77
2018-12-24T02:11:39.861Z,12.03
2018-12-24T02:14:20.694Z,11.17
2018-12-24T02:17:01.734Z,12.20
2018-12-24T02:19:57.409Z,10.63
2018-12-24T02:22:41.456Z,9.20
2018-12-24T02:25:23.732Z,11.57
2018-12-24T02:28:15.443Z,11.53
2018-12-24T02:30:55.709Z,12.00
2018-12-24T02:33:37.451Z,9.77
2018-12-24T02:36:21.646Z,10.70
2018-12-24T02:39:04.511Z,8.83
2018-12-24T02:41:51.900Z,9.20
2018-12-24T02:44:41.292Z,12.27
2018-12-24T02:47:17.005Z,7.57
2018-12-24T02:49:58.855Z,8.37
2018-12-24T02:52:42.343Z,10.23
2018-12-24T02:55:29.696Z,8.88
2018-12-24T02:58:10.903Z,7.33
2018-12-24T03:00:55.449Z,11.13
2018-12-24T03:03:38.342Z,9.43
2018-12-24T03:06:23.626Z,9.30
2018-12-24T03:09:07.054Z,8.63
2018-12-24T03:11:56.577Z,10.23
2018-12-24T03:14:39.882Z,8.83
2018-12-24T03:17:22.694Z,7.83
2018-12-24T03:20:06.728Z,9.90
2018-12-24T03:22:57.880Z,8.87
2018-12-24T03:25:38.268Z,8.33
2018-12-24T03:28:19.153Z,10.93
2018-12-24T03:31:04.308Z,7.40
2018-12-24T03:33:45.631Z,9.20
2018-12-24T03:36:30.496Z,10.20
2018-12-24T03:39:16.482Z,8.57
2018-12-24T03:41:57.624Z,6.80
2018-12-24T03:44:38.498Z,9.40
2018-12-24T03:47:18.729Z,7.93
2018-12-24T03:50:02.209Z,6.20
2018-12-24T03:52:45.743Z,13.20
2018-12-24T03:55:27.579Z,8.30
2018-12-24T03:58:07.468Z,12.17
2018-12-24T04:00:48.401Z,9.50
2018-12-24T04:03:35.891Z,8.70
2018-12-24T04:06:17.653Z,6.83
2018-12-24T04:08:58.351Z,10.23
2018-12-24T04:11:55.367Z,10.50
2018-12-24T04:14:36.095Z,7.33
2018-12-24T04:17:15.194Z,9.15
2018-12-24T04:20:01.042Z,7.20
2018-12-24T04:22:43.802Z,7.83
2018-12-24T04:25:24.396Z,7.50
2018-12-24T04:28:07.539Z,8.57
2018-12-24T04:31:00.307Z,6.43
2018-12-24T04:33:44.628Z,7.73
2018-12-24T04:36:26.191Z,6.60
2018-12-24T04:39:14.848Z,9.00
2018-12-24T04:42:00.029Z,6.97
2018-12-24T04:44:40.814Z,11.33
2018-12-24T04:47:28.327Z,8.15
2018-12-24T04:50:11.368Z,11.13
2018-12-24T04:52:51.784Z,9.13
2018-12-24T04:55:40.830Z,11.85
2018-12-24T04:58:18.216Z,9.10
2018-12-24T05:00:58.274Z,8.23
2018-12-24T05:03:38.092Z,8.03
2018-12-24T05:06:25.214Z,9.50
2018-12-24T05:09:07.174Z,8.80
2018-12-24T05:11:51.207Z,9.80
2018-12-24T05:14:45.425Z,11.10
2018-12-24T05:17:26.580Z,14.90
2018-12-24T05:20:08.415Z,11.00
2018-12-24T05:22:49.317Z,11.10
2018-12-24T05:25:39.748Z,9.98
2018-12-24T05:28:23.042Z,10.53
2018-12-24T05:31:07.279Z,9.50
2018-12-24T05:33:52.077Z,9.47
2018-12-24T05:36:31.740Z,15.97
2018-12-24T05:39:12.247Z,13.10
2018-12-24T05:41:53.798Z,9.97
2018-12-24T05:44:42.342Z,11.78
2018-12-24T05:47:22.094Z,12.30
2018-12-24T05:50:03.230Z,12.27
2018-12-24T05:52:37.760Z,11.40
2018-12-24T05:55:25.145Z,11.90
2018-12-24T05:58:04.144Z,10.03
2018-12-24T06:00:43.902Z,9.20
2018-12-24T06:03:28.136Z,10.98
2018-12-24T06:06:12.595Z,11.43
2018-12-24T06:08:53.182Z,10.03
2018-12-24T06:11:34.045Z,12.70
2018-12-24T06:14:19.150Z,8.17
2018-12-24T06:16:56.880Z,10.17
2018-12-24T06:19:41.278Z,8.23
2018-12-24T06:22:21.466Z,11.20
2018-12-24T06:25:09.715Z,10.67
2018-12-24T06:27:54.982Z,12.87
2018-12-24T06:30:39.266Z,14.80
2018-12-24T06:33:24.889Z,11.53
2018-12-24T06:36:04.249Z,12.23
2018-12-24T06:38:45.307Z,11.73
2018-12-24T06:41:22.337Z,10.43
2018-12-24T06:44:10.359Z,12.40
2018-12-24T06:46:51.766Z,14.67
2018-12-24T06:49:33.478Z,10.58
2018-12-24T06:52:23.844Z,13.27
2018-12-24T06:55:00.721Z,15.63
2018-12-24T06:57:37.770Z,12.13
2018-12-24T07:00:16.768Z,11.63
2018-12-24T07:02:54.037Z,12.57
2018-12-24T07:05:47.284Z,12.87
2018-12-24T07:08:36.422Z,9.50
2018-12-24T07:11:17.314Z,10.10
2018-12-24T07:14:15.433Z,17.87
2018-12-24T07:16:55.146Z,13.93
2018-12-24T07:19:53.018Z,13.17
2018-12-24T07:22:28.728Z,14.13
2018-12-24T07:25:12.732Z,11.17
2018-12-24T07:27:53.144Z,15.43
2018-12-24T07:30:40.477Z,12.53
2018-12-24T07:33:22.649Z,13.73
2018-12-24T07:36:06.353Z,13.27
2018-12-24T07:38:56.228Z,12.63
2018-12-24T07:41:38.179Z,14.50
2018-12-24T07:44:24.318Z,15.93
2018-12-24T07:47:11.494Z,14.77
2018-12-24T07:49:54.032Z,19.80
2018-12-24T07:52:37.534Z,16.47
2018-12-24T07:55:29.479Z,18.40
2018-12-24T07:58:10.269Z,19.77
2018-12-24T08:00:51.529Z,19.20
2018-12-24T08:03:35.168Z,22.87
2018-12-24T08:06:25.119Z,23.73
2018-12-24T08:09:05.178Z,22.53
2018-12-24T08:11:46.662Z,20.63
2018-12-24T08:14:40.082Z,21.93
2018-12-24T08:17:27.480Z,17.07
2018-12-24T08:20:14.983Z,15.80
2018-12-24T08:23:09.509Z,18.30
2018-12-24T08:25:50.451Z,16.87
2018-12-24T08:28:32.648Z,16.15
2018-12-24T08:31:25.013Z,15.53
2018-12-24T08:34:07.367Z,15.47
2018-12-24T08:36:51.866Z,15.83
2018-12-24T08:39:59.987Z,14.07
2018-12-24T08:42:41.318Z,15.67
2018-12-24T08:45:33.435Z,14.50
2018-12-24T08:48:06.370Z,14.00
2018-12-24T08:50:49.493Z,15.97
2018-12-24T08:53:30.197Z,13.83
2018-12-24T08:56:29.243Z,10.93
2018-12-24T08:59:14.596Z,16.17
2018-12-24T09:02:03.390Z,14.93
2018-12-24T09:04:51.952Z,17.53
2018-12-24T09:07:46.043Z,14.18
2018-12-24T09:10:32.066Z,11.83
2018-12-24T09:13:12.813Z,18.67
2018-12-24T09:15:58.558Z,15.83
2018-12-24T09:18:40.527Z,17.57
2018-12-24T09:21:39.221Z,20.90
2018-12-24T09:24:27.531Z,15.37
2018-12-24T09:32:52.370Z,13.20
2018-12-24T09:35:40.973Z,12.80
2018-12-24T09:38:20.630Z,17.67
2018-12-24T09:41:01.730Z,14.50
2018-12-24T09:43:55.319Z,13.43
2018-12-24T09:46:29.910Z,15.53
2018-12-24T09:49:15.068Z,12.33
2018-12-24T09:52:17.579Z,15.97
2018-12-24T09:54:46.734Z,15.63
2018-12-24T09:57:25.023Z,15.78
2018-12-24T10:00:05.860Z,17.73
2018-12-24T10:03:08.718Z,15.70
2018-12-24T10:05:48.838Z,16.73
2018-12-24T10:08:35.139Z,13.85
2018-12-24T10:11:33.254Z,13.57
2018-12-24T10:14:11.740Z,15.53
2018-12-24T10:16:47.199Z,19.43
2018-12-24T10:19:42.299Z,18.45
2018-12-24T10:22:20.557Z,14.03
2018-12-24T10:25:07.078Z,14.47
2018-12-24T10:28:00.064Z,14.57
2018-12-24T10:30:46.497Z,14.83
2018-12-24T10:33:27.824Z,18.32
2018-12-24T10:36:17.830Z,14.20
2018-12-24T10:39:05.237Z,16.60
2018-12-24T10:41:50.152Z,15.47
2018-12-24T10:44:44.765Z,16.53
2018-12-24T10:47:35.066Z,18.87
2018-12-24T10:50:15.831Z,19.03
2018-12-24T10:53:05.481Z,12.47
2018-12-24T10:55:49.490Z,13.43
2018-12-24T10:58:43.530Z,11.93
2018-12-24T11:01:37.463Z,13.25
2018-12-24T11:04:21.259Z,10.48
2018-12-24T11:07:04.238Z,12.55
2018-12-24T11:09:52.633Z,12.43
2018-12-24T11:12:33.656Z,10.90
2018-12-24T11:15:21.336Z,9.90
2018-12-24T11:18:08.192Z,10.93
2018-12-24T11:20:51.279Z,11.80
2018-12-24T11:24:12.636Z,12.05
2018-12-24T11:26:57.455Z,15.80
2018-12-24T11:29:42.924Z,15.03
2018-12-24T11:32:29.898Z,12.23
2018-12-24T11:35:10.914Z,14.50
2018-12-24T11:37:54.519Z,13.33
2018-12-24T11:40:44.126Z,8.93
2018-12-24T11:43:15.479Z,12.10
2018-12-24T11:45:58.601Z,11.47
2018-12-24T11:48:40.004Z,9.67
2018-12-24T11:51:25.811Z,8.23
2018-12-24T11:54:10.260Z,11.33
2018-12-24T11:56:52.095Z,10.87
2018-12-24T12:02:38.119Z,7.50
2018-12-24T12:05:18.615Z,9.77
2018-12-24T12:08:03.752Z,9.58
2018-12-24T12:10:59.264Z,8.53
2018-12-24T12:13:42.621Z,7.03
2018-12-24T12:16:34.194Z,8.23
2018-12-24T12:19:15.837Z,8.00
2018-12-24T12:21:57.037Z,9.53
2018-12-24T12:24:38.763Z,11.10
2018-12-24T12:27:23.562Z,10.03
2018-12-24T12:30:05.852Z,9.10
2018-12-24T12:32:47.104Z,8.40
2018-12-24T12:35:36.538Z,11.88
2018-12-24T12:38:29.474Z,10.63
2018-12-24T12:41:11.679Z,10.93
2018-12-24T12:43:59.689Z,11.63
2018-12-24T12:46:37.294Z,10.73
2018-12-24T12:49:27.429Z,8.20
2018-12-24T12:52:18.861Z,8.53
2018-12-24T12:54:58.594Z,10.83
2018-12-24T12:57:42.442Z,11.30
2018-12-24T13:00:36.390Z,9.00
2018-12-24T13:03:16.529Z,10.78
2018-12-24T13:05:56.903Z,11.23
2018-12-24T13:08:45.437Z,10.00
2018-12-24T13:11:50.393Z,9.28
2018-12-24T13:14:37.523Z,12.07
2018-12-24T13:17:23.957Z,9.33
2018-12-24T13:20:25.092Z,8.17
2018-12-24T13:23:27.569Z,7.80
2018-12-24T13:26:14.407Z,8.53
2018-12-24T13:29:24.242Z,5.73
2018-12-24T13:32:26.437Z,8.97
2018-12-24T13:35:14.559Z,6.13
2018-12-24T13:38:23.638Z,19.00
2018-12-24T13:41:07.383Z,5.30
2018-12-24T13:43:52.963Z,7.87
2018-12-24T13:46:34.931Z,4.08
2018-12-24T13:49:24.309Z,5.53
2018-12-24T13:52:09.875Z,4.37
2018-12-24T13:54:54.670Z,7.40
2018-12-24T13:57:43.701Z,9.78
2018-12-24T14:00:35.297Z,6.30
2018-12-24T14:03:14.160Z,7.77
2018-12-24T14:06:05.700Z,6.40
2018-12-24T14:08:44.272Z,6.37
2018-12-24T14:11:43.025Z,6.03
2018-12-24T14:14:40.923Z,7.33
2018-12-24T14:17:21.984Z,6.58
2018-12-24T14:20:14.970Z,6.10
2018-12-24T14:22:55.464Z,6.80
2018-12-24T14:25:38.320Z,7.97
2018-12-24T14:28:20.457Z,7.47
2018-12-24T14:31:17.791Z,7.47
2018-12-24T14:33:58.263Z,6.27
2018-12-24T14:36:44.728Z,6.00
2018-12-24T14:39:55.920Z,6.37
2018-12-24T14:42:41.551Z,6.60
2018-12-24T14:45:55.270Z,3.90
2018-12-24T14:48:39.126Z,5.73
2018-12-24T14:51:27.034Z,3.70
2018-12-24T14:54:19.398Z,3.60
2018-12-24T14:56:59.847Z,5.10
2018-12-24T14:59:52.671Z,3.63
2018-12-24T15:02:35.490Z,4.12
2018-12-24T15:05:18.948Z,5.87
2018-12-24T15:08:03.852Z,6.87
2018-12-24T15:10:45.639Z,4.03
2018-12-24T15:13:20.816Z,6.10
2018-12-24T15:16:00.323Z,7.07
2018-12-24T15:18:40.083Z,4.77
2018-12-24T15:21:30.117Z,9.33
2018-12-24T15:24:01.223Z,7.67
2018-12-24T15:26:32.119Z,9.33
2018-12-24T15:29:02.778Z,8.20
2018-12-24T15:31:33.542Z,8.27
2018-12-24T15:34:10.122Z,5.97
2018-12-24T15:36:47.338Z,5.07
2018-12-24T15:39:21.521Z,4.73
2018-12-24T15:41:59.756Z,5.50
2018-12-24T15:44:37.124Z,4.92
2018-12-24T15:47:32.942Z,6.60
2018-12-24T15:50:21.543Z,5.43
2018-12-24T15:53:01.086Z,4.90
2018-12-24T15:55:54.615Z,4.90
2018-12-24T15:58:41.324Z,10.13
2018-12-24T16:01:34.275Z,4.08
2018-12-24T16:04:10.332Z,7.97
2018-12-24T16:07:13.422Z,7.20
2018-12-24T16:10:04.501Z,5.53
2018-12-24T16:13:10.758Z,4.33
2018-12-24T16:15:56.604Z,6.00
2018-12-24T16:18:49.722Z,4.37
2018-12-24T16:21:29.513Z,4.50
2018-12-24T16:24:19.483Z,5.93
2018-12-24T16:27:01.244Z,5.15
2018-12-24T16:29:46.630Z,6.80
2018-12-24T16:32:35.324Z,5.03
2018-12-24T16:35:18.582Z,6.70
2018-12-24T16:38:00.134Z,8.10
2018-12-24T16:40:40.659Z,4.50
2018-12-24T16:43:31.751Z,4.37
2018-12-24T16:46:13.984Z,6.17
2018-12-24T16:48:57.483Z,7.23
2018-12-24T16:51:46.017Z,4.47
2018-12-24T16:54:31.745Z,5.70
2018-12-24T16:57:13.354Z,6.13
2018-12-24T16:59:59.799Z,5.50
2018-12-24T17:02:43.501Z,10.47
2018-12-24T17:05:25.998Z,4.40
2018-12-24T17:08:06.183Z,4.03
2018-12-24T17:10:49.391Z,5.17
2018-12-24T17:13:29.217Z,5.77
2018-12-24T17:16:09.647Z,5.40
2018-12-24T17:18:49.723Z,5.30
2018-12-24T17:21:29.999Z,5.57
2018-12-24T17:24:09.521Z,5.43
2018-12-24T17:26:49.966Z,5.83
2018-12-24T17:29:32.383Z,6.77
2018-12-24T17:32:15.321Z,14.83
2018-12-24T17:34:57.704Z,9.90
2018-12-24T17:37:46.894Z,8.13
2018-12-24T17:40:30.318Z,9.78
2018-12-24T17:43:10.895Z,10.63
2018-12-24T17:45:52.229Z,7.63
2018-12-24T17:48:38.593Z,8.38
2018-12-24T17:51:17.790Z,7.50
2018-12-24T17:54:01.869Z,8.27
2018-12-24T17:56:45.574Z,11.43
2018-12-24T17:59:30.448Z,9.88
2018-12-24T18:02:14.435Z,7.67
2018-12-24T18:04:57.004Z,8.47
2018-12-24T18:07:41.697Z,9.67
2018-12-24T18:10:22.732Z,6.30
2018-12-24T18:13:04.853Z,8.83
2018-12-24T18:15:44.609Z,6.17
2018-12-24T18:18:24.173Z,6.37
2018-12-24T18:21:08.532Z,9.43
2018-12-24T18:23:57.201Z,10.00
2018-12-24T18:26:36.917Z,6.73
2018-12-24T18:29:19.213Z,8.20
2018-12-24T18:32:00.614Z,7.17
2018-12-24T18:34:39.154Z,6.43
2018-12-24T18:37:18.906Z,7.67
2018-12-24T18:40:07.122Z,8.53
2018-12-24T18:42:46.021Z,6.53
2018-12-24T18:45:27.091Z,26.13
2018-12-24T18:48:07.511Z,11.73
2018-12-24T18:51:03.442Z,7.13
2018-12-24T18:53:44.360Z,9.30
2018-12-24T18:56:24.948Z,7.67
2018-12-24T18:59:14.091Z,7.73
2018-12-24T19:01:53.894Z,9.83
2018-12-24T19:04:33.958Z,7.85
2018-12-24T19:07:32.188Z,8.33
2018-12-24T19:10:01.368Z,7.00
2018-12-24T19:12:43.103Z,5.80
2018-12-24T19:15:21.781Z,9.58
2018-12-24T19:18:09.548Z,5.77
2018-12-24T19:20:48.971Z,9.03
2018-12-24T19:23:30.874Z,6.97
2018-12-24T19:26:08.693Z,6.17
2018-12-24T19:28:53.719Z,6.37
2018-12-24T19:31:35.337Z,6.37
2018-12-24T19:34:16.506Z,5.17
2018-12-24T19:37:07.033Z,5.50
2018-12-24T19:39:40.433Z,5.70
2018-12-24T19:42:23.519Z,8.45
2018-12-24T19:45:03.769Z,6.67
2018-12-24T19:47:49.920Z,12.20
2018-12-24T19:50:30.539Z,6.87
2018-12-24T19:53:08.989Z,9.13
2018-12-24T19:55:55.098Z,9.57
2018-12-24T19:58:45.536Z,9.50
2018-12-24T20:01:25.603Z,7.20
2018-12-24T20:04:04.996Z,9.37
2018-12-24T20:06:45.084Z,10.90
2018-12-24T20:09:26.406Z,8.28
2018-12-24T20:12:08.007Z,11.10
2018-12-24T20:14:49.211Z,13.63
2018-12-24T20:17:26.430Z,8.87
2018-12-24T20:20:09.503Z,12.23
2018-12-24T20:22:49.183Z,7.17
2018-12-24T20:25:31.049Z,8.85
2018-12-24T20:28:11.299Z,9.93
2018-12-24T20:30:55.261Z,8.57
2018-12-24T20:33:33.729Z,8.28
2018-12-24T20:36:15.710Z,10.30
2018-12-24T20:38:56.215Z,12.85
2018-12-24T20:41:38.124Z,9.77
2018-12-24T20:44:28.686Z,8.77
2018-12-24T20:47:13.004Z,12.45
2018-12-24T20:49:58.497Z,11.13
2018-12-24T20:52:41.036Z,10.73
2018-12-24T20:55:23.960Z,10.47
2018-12-24T20:58:09.397Z,10.27
2018-12-24T21:00:56.693Z,13.37
2018-12-24T21:03:37.013Z,10.37
2018-12-24T21:06:16.585Z,9.13
2018-12-24T21:09:06.611Z,10.07
2018-12-24T21:11:46.474Z,8.20
2018-12-24T21:14:27.238Z,9.63
2018-12-24T21:17:07.820Z,9.40
2018-12-24T21:19:48.955Z,8.53
2018-12-24T21:22:32.290Z,8.20
2018-12-24T21:25:17.568Z,10.13
2018-12-24T21:28:07.597Z,11.10
2018-12-24T21:30:46.057Z,8.50
2018-12-24T21:33:28.570Z,8.25
2018-12-24T21:36:09.396Z,8.10
2018-12-24T21:38:57.436Z,9.77
2018-12-24T21:41:35.361Z,9.57
2018-12-24T21:44:15.814Z,12.20
2018-12-24T21:47:07.287Z,14.93
2018-12-24T21:49:55.712Z,9.80
2018-12-24T21:52:36.925Z,11.13
2018-12-24T21:55:16.490Z,9.00
2018-12-24T21:58:14.935Z,10.73
2018-12-24T22:01:10.690Z,8.57
2018-12-24T22:04:00.194Z,8.57
2018-12-24T22:06:58.992Z,11.20
2018-12-24T22:09:48.104Z,6.60
2018-12-24T22:12:34.440Z,9.00
2018-12-24T22:15:21.742Z,8.50
2018-12-24T22:18:00.922Z,11.63
2018-12-24T22:20:40.313Z,10.33
2018-12-24T22:23:22.433Z,9.93
2018-12-24T22:26:06.471Z,9.23
2018-12-24T22:28:46.194Z,9.80
2018-12-24T22:31:25.391Z,10.03
2018-12-24T22:34:23.693Z,10.10
2018-12-24T22:36:45.733Z,7.57
2018-12-24T22:39:25.366Z,8.90
2018-12-24T22:42:07.983Z,7.67
2018-12-24T22:44:53.050Z,8.97
2018-12-24T22:47:38.183Z,8.83
2018-12-24T22:50:20.840Z,8.27
2018-12-24T22:53:02.710Z,7.43
2018-12-24T22:55:42.431Z,8.13
2018-12-24T22:58:22.860Z,9.00
2018-12-24T23:01:02.324Z,8.27
2018-12-24T23:03:41.987Z,8.67
2018-12-24T23:06:20.840Z,13.50
2018-12-24T23:09:03.649Z,7.30
2018-12-24T23:11:44.691Z,7.95
2018-12-24T23:14:24.294Z,8.90
2018-12-24T23:17:01.536Z,8.30
2018-12-24T23:19:39.475Z,8.17
2018-12-24T23:22:19.140Z,5.90
2018-12-24T23:24:58.281Z,8.73
2018-12-24T23:27:41.546Z,6.33
2018-12-24T23:30:20.429Z,8.67
2018-12-24T23:33:02.961Z,9.87
2018-12-24T23:35:40.909Z,9.50
2018-12-24T23:38:20.047Z,10.20
2018-12-24T23:40:58.440Z,9.97
2018-12-24T23:43:42.644Z,10.37
2018-12-24T23:46:24.904Z,7.67
2018-12-24T23:49:07.788Z,10.83
2018-12-24T23:51:47.093Z,9.80
2018-12-24T23:54:26.970Z,8.40
2018-12-24T23:57:05.458Z,8.97
2018-12-24T23:59:48.758Z,6.60
